Latest Weather Observations for Camooweal

IDD60801

Issued at 8:01 am CST Wednesday 24 October 2018 (issued every 10 minutes, with the page automatically refreshed every 10 minutes)

About weather observations | Map of weather stations | Latest weather observations for NT | Other Formats
Station Details ID: 037010 Name: CAMOOWEAL TOWNSHIP Lat: -19.92 Lon: 138.12 Height: 231.2 m
Data from the previous 72 hours. | See also: Recent months at Camooweal
Date/Time
CST
Temp
°C
App
Temp
°C
Dew
Point
°C
Rel
Hum
%
Delta-T
°C
Wind Press
QNH
hPa
Press
MSL
hPa
Rain since
9am
mm
Dir  Spd
km/h
Gust
km/h
Spd
kts
Gust
kts
24/08:00am 31.0 29.4 12.8 32 10.9 WNW 13 19 7 10 1013.1 1011.7 0.0
24/07:30am 28.2 27.9 14.4 42 8.4 NW 9 17 5 9 1012.8 1011.4 0.0
24/07:00am 24.3 21.8 6.6 32 9.3 NNW 9 11 5 6 1012.5 1011.1 0.0
24/06:30am 21.1 18.0 0.3 25 9.4 WNW 6 11 3 6 1012.2 1010.8 0.0
24/06:00am 19.0 14.9 -3.2 22 9.2 NW 9 15 5 8 1011.9 1010.4 0.0
24/05:30am 21.0 17.7 -4.2 18 10.5 NNW 4 9 2 5 1011.4 1009.9 0.0
24/05:00am 22.2 17.4 -6.5 14 11.5 NNW 11 15 6 8 1011.1 1009.6 0.0
24/04:30am 21.5 16.7 -6.2 15 11.1 ESE 11 11 6 6 1010.3 1008.9 0.0
24/04:00am 23.0 18.0 -7.9 12 12.2 E 11 11 6 6 1010.1 1008.7 0.0
24/03:30am 24.4 19.5 -6.8 12 12.7 E 11 13 6 7 1009.9 1008.5 0.0
24/03:00am 25.5 19.4 -8.3 10 13.5 E 17 20 9 11 1009.9 1008.5 0.0
24/02:30am 25.5 19.5 -7.1 11 13.4 ENE 17 20 9 11 1010.1 1008.7 0.0
24/02:00am 24.7 18.6 -7.7 11 13.0 E 17 20 9 11 1010.4 1009.0 0.0
24/01:30am 24.2 19.7 -7.0 12 12.7 ESE 9 13 5 7 1010.7 1009.2 0.0
24/01:00am 24.2 20.0 -8.1 11 12.8 S 7 7 4 4 1010.8 1009.3 0.0
24/12:30am 25.3 21.1 -7.2 11 13.3 S 7 9 4 5 1011.0 1009.5 0.0
24/12:00am 24.9 21.0 -6.4 12 12.9 S 6 7 3 4 1011.1 1009.6 0.0
 
Date/Time
CST
Temp
°C
App
Temp
°C
Dew
Point
°C
Rel
Hum
%
Delta-T
°C
Wind Press
QNH
hPa
Press
MSL
hPa
Rain since
9am
mm
Dir  Spd
km/h
Gust
km/h
Spd
kts
Gust
kts
23/11:30pm 25.5 21.5 -6.0 12 13.2 SSW 7 9 4 5 1011.1 1009.6 0.0
23/11:00pm 25.7 21.7 -5.8 12 13.2 SSW 7 9 4 5 1011.2 1009.7 0.0
23/10:30pm 26.0 21.6 -5.6 12 13.4 S 9 13 5 7 1011.1 1009.6 0.0
23/10:00pm 26.8 22.5 -4.9 12 13.7 SSW 9 15 5 8 1011.0 1009.5 0.0
23/09:30pm 27.4 22.6 -5.6 11 14.2 SSE 11 13 6 7 1010.9 1009.4 0.0
23/09:00pm 28.2 23.5 -5.0 11 14.5 SSE 11 13 6 7 1010.7 1009.2 0.0
23/08:30pm 28.7 24.0 -4.6 11 14.7 SSE 11 11 6 6 1010.3 1008.9 0.0
23/08:00pm 30.2 25.1 -4.8 10 15.6 SSE 13 15 7 8 1010.0 1008.6 0.0
23/07:30pm 31.9 26.8 -4.9 9 16.6 SSE 13 15 7 8 1009.6 1008.2 0.0
23/07:00pm 33.5 28.4 -5.2 8 17.5 SSE 13 17 7 9 1009.2 1007.8 0.0
23/06:30pm 35.6 29.3 -5.5 7 18.9 S 19 24 10 13 1008.9 1007.5 0.0
23/06:00pm 37.5 31.6 -6.1 6 20.1 SSE 17 26 9 14 1008.6 1007.2 0.0
23/05:30pm 38.6 31.0 -5.3 6 20.7 S 26 39 14 21 1008.3 1006.9 0.0
23/05:00pm 39.3 32.2 -4.8 6 21.0 S 24 32 13 17 1008.0 1006.5 0.0
23/04:30pm 39.6 32.1 -4.6 6 21.2 SSE 26 44 14 24 1007.9 1006.4 0.0
23/04:00pm 39.6 32.5 -4.6 6 21.1 S 24 39 13 21 1007.8 1006.3 0.0
23/03:30pm 39.6 32.1 -4.6 6 21.2 SSW 26 37 14 20 1007.9 1006.4 0.0
23/03:00pm 39.9 32.4 -4.4 6 21.3 SSE 26 39 14 21 1008.1 1006.6 0.0
23/02:30pm 40.2 32.4 -4.2 6 21.5 S 28 43 15 23 1008.1 1006.6 0.0
23/02:00pm 40.2 33.5 -4.2 6 21.4 SSE 22 33 12 18 1008.4 1007.0 0.0
23/01:37pm 40.1 34.0 -4.3 6 21.4 S 19 39 10 21 1008.6 1007.2 0.0
23/01:30pm 40.0 34.2 -4.3 6 21.4 SSW 17 26 9 14 1008.7 1007.3 0.0
23/01:00pm 39.4 33.6 -4.8 6 21.0 SSE 17 28 9 15 1009.3 1007.9 0.0
23/12:30pm 38.2 34.2 -5.6 6 20.5 NNE 7 13 4 7 1009.9 1008.5 0.0
23/12:00pm 38.6 34.3 -5.3 6 20.6 ENE 9 17 5 9 1010.7 1009.2 0.0
23/11:30am 38.5 34.5 -5.4 6 20.6 E 7 15 4 8 1011.2 1009.7 0.0
23/11:00am 37.5 32.3 -6.1 6 20.1 N 13 19 7 10 1011.6 1010.1 0.0
23/10:30am 36.7 31.5 -6.7 6 19.7 NNE 13 22 7 12 1011.9 1010.4 0.0
23/10:00am 36.8 32.5 -4.6 7 19.4 NNW 9 15 5 8 1012.1 1010.6 0.0
23/09:30am 35.9 31.9 -5.2 7 19.0 ENE 7 11 4 6 1012.2 1010.8 0.0
23/09:00am 34.8 31.1 -2.7 9 17.9 ENE 7 13 4 7 1012.3 1010.9 0.0
23/08:30am 33.2 29.2 -2.5 10 16.9 E 9 11 5 6 1012.3 1010.9 0.0
23/08:00am 30.6 26.5 -3.2 11 15.5 ESE 9 13 5 7 1012.1 1010.6 0.0
23/07:30am 27.2 23.6 -3.6 13 13.7 SSE 6 7 3 4 1011.9 1010.4 0.0
23/07:00am 22.7 19.7 0.5 23 10.2 SSW 6 9 3 5 1011.8 1010.3 0.0
23/06:30am 20.3 17.2 0.2 26 9.1 SSW 6 7 3 4 1011.2 1009.7 0.0
23/06:00am 18.9 15.4 1.0 30 8.1 SSW 9 11 5 6 1010.8 1009.3 0.0
23/05:30am 19.1 16.4 2.5 33 7.8 S 6 7 3 4 1010.4 1009.0 0.0
23/05:00am 20.0 16.9 -0.1 26 9.0 SE 6 7 3 4 1010.0 1008.6 0.0
23/04:30am 20.7 17.3 -1.8 22 9.8 E 6 7 3 4 1009.8 1008.4 0.0
23/04:00am 21.5 17.6 -4.5 17 10.8 E 7 9 4 5 1009.6 1008.2 0.0
23/03:30am 23.7 19.4 -4.4 15 11.9 ENE 9 11 5 6 1009.3 1007.9 0.0
23/03:00am 23.2 19.5 -4.8 15 11.7 E 6 7 3 4 1009.0 1007.6 0.0
23/02:30am 23.6 19.0 -4.5 15 11.9 E 11 13 6 7 1009.2 1007.8 0.0
23/02:00am 24.1 20.3 -4.1 15 12.1 E 7 11 4 6 1009.5 1008.1 0.0
23/01:30am 24.6 20.3 -4.6 14 12.4 E 9 11 5 6 1009.8 1008.4 0.0
23/01:00am 25.3 20.6 -5.1 13 12.9 ESE 11 13 6 7 1010.1 1008.7 0.0
23/12:30am 26.8 21.2 -6.1 11 13.9 SE 15 20 8 11 1010.7 1009.2 0.0
23/12:00am 27.5 21.6 -5.6 11 14.2 SSE 17 20 9 11 1011.1 1009.6 0.0
 
Date/Time
CST
Temp
°C
App
Temp
°C
Dew
Point
°C
Rel
Hum
%
Delta-T
°C
Wind Press
QNH
hPa
Press
MSL
hPa
Rain since
9am
mm
Dir  Spd
km/h
Gust
km/h
Spd
kts
Gust
kts
22/11:30pm 27.8 22.3 -5.3 11 14.3 SSE 15 20 8 11 1011.3 1009.8 0.0
22/11:00pm 28.1 22.4 -3.9 12 14.2 SSE 17 22 9 12 1011.4 1009.9 0.0
22/10:30pm 27.7 22.4 -3.2 13 13.9 SSE 15 19 8 10 1011.5 1010.0 0.0
22/10:00pm 27.1 23.4 -2.7 14 13.4 S 7 9 4 5 1011.4 1009.9 0.0
22/09:30pm 27.2 22.8 -2.6 14 13.5 SSE 11 11 6 6 1011.4 1009.9 0.0
22/09:00pm 27.8 23.3 -3.1 13 13.9 SSE 11 13 6 7 1011.2 1009.7 0.0
22/08:30pm 27.9 23.4 -3.0 13 13.9 S 11 15 6 8 1011.0 1009.5 0.0
22/08:00pm 29.5 24.7 -2.9 12 14.8 SSE 13 15 7 8 1010.7 1009.2 0.0
22/07:30pm 30.4 25.5 -3.3 11 15.4 S 13 15 7 8 1010.2 1008.8 0.0
22/07:00pm 32.0 27.1 -3.4 10 16.4 SSE 13 15 7 8 1009.8 1008.4 0.0
22/06:30pm 33.8 28.5 -3.5 9 17.5 S 15 17 8 9 1009.6 1008.2 0.0
22/06:00pm 35.9 29.7 -3.5 8 18.7 S 20 30 11 16 1009.2 1007.8 0.0
22/05:30pm 37.0 30.1 -2.7 8 19.3 S 24 33 13 18 1009.0 1007.6 0.0
22/05:00pm 37.3 29.3 -2.4 8 19.3 SSW 30 39 16 21 1008.7 1007.3 0.0
22/04:30pm 38.1 30.9 -1.9 8 19.8 S 26 44 14 24 1008.6 1007.2 0.0
22/04:00pm 38.2 31.0 -1.8 8 19.8 S 26 43 14 23 1008.5 1007.1 0.0
22/03:30pm 38.2 31.0 -1.8 8 19.8 SSW 26 46 14 25 1008.6 1007.2 0.0
22/03:00pm 38.5 31.4 -1.6 8 19.9 S 26 39 14 21 1008.8 1007.4 0.0
22/02:30pm 38.5 31.4 -1.6 8 20.0 S 26 39 14 21 1009.2 1007.8 0.0
22/02:11pm 38.3 30.8 -1.7 8 19.8 SSW 28 46 15 25 1009.4 1008.0 0.0
22/02:00pm 37.5 31.2 -0.7 9 19.1 SW 22 39 12 21 1009.7 1008.3 0.0
22/01:43pm 38.7 31.4 0.2 9 19.7 S 28 46 15 25 1009.7 1008.3 0.0
22/01:30pm 38.4 32.4 -1.6 8 19.9 S 20 35 11 19 1010.0 1008.6 0.0
22/01:00pm 37.3 30.6 -0.9 9 19.1 SSE 24 37 13 20 1010.8 1009.3 0.0
22/12:30pm 37.8 32.5 -0.5 9 19.3 SSE 17 32 9 17 1011.2 1009.7 0.0
22/12:00pm 35.7 30.6 -2.0 9 18.3 SSE 15 28 8 15 1011.9 1010.4 0.0
22/11:30am 36.4 31.4 -1.5 9 18.6 SSE 15 26 8 14 1012.5 1011.1 0.0
22/11:00am 35.2 29.5 -4.0 8 18.4 SE 17 24 9 13 1013.1 1011.7 0.0
22/10:30am 34.8 29.4 -4.3 8 18.2 SE 15 24 8 13 1013.4 1012.0 0.0
22/10:00am 33.7 28.8 -3.5 9 17.4 SE 13 20 7 11 1013.8 1012.4 0.0
22/09:30am 32.7 27.5 -2.9 10 16.7 ESE 15 20 8 11 1014.1 1012.7 0.0
22/09:00am 31.4 25.3 -2.6 11 15.9 ESE 20 26 11 14 1014.2 1012.8 0.0
22/08:30am 30.6 24.2 -2.0 12 15.3 SE 22 30 12 16 1014.1 1012.7 0.0
22/08:00am 29.0 22.9 -2.2 13 14.4 SE 20 26 11 14 1013.9 1012.5 0.0
22/07:30am 27.1 21.1 -2.7 14 13.4 SE 19 28 10 15 1013.9 1012.5 0.0
22/07:00am 24.5 18.9 -2.9 16 12.0 SE 17 26 9 14 1013.6 1012.2 0.0
22/06:30am 22.5 17.6 -3.0 18 11.0 SE 13 17 7 9 1013.3 1011.9 0.0
22/06:00am 21.0 17.2 -3.5 19 10.3 SE 7 11 4 6 1012.9 1011.5 0.0
22/05:30am 21.1 16.7 -2.7 20 10.2 S 11 13 6 7 1012.5 1011.1 0.0
22/05:00am 21.7 16.9 -2.9 19 10.5 SSE 13 15 7 8 1012.2 1010.8 0.0
22/04:30am 22.1 17.3 -2.6 19 10.7 S 13 17 7 9 1011.9 1010.4 0.0
22/04:00am 19.6 16.2 2.0 31 8.2 S 9 13 5 7 1011.7 1010.2 0.0
22/03:30am 19.4 16.2 3.2 34 7.7 SSW 9 9 5 5 1011.7 1010.2 0.0
22/03:00am 18.4 15.7 3.8 38 7.0 SSW 7 9 4 5 1011.6 1010.1 0.0
22/02:30am 19.2 16.3 4.6 38 7.1 SW 9 11 5 6 1011.7 1010.2 0.0
22/02:00am 19.9 17.4 3.6 34 7.8 SW 6 9 3 5 1011.8 1010.3 0.0
22/01:30am 20.7 17.9 3.0 31 8.4 SW 7 9 4 5 1012.0 1010.5 0.0
22/01:00am 20.6 17.9 3.8 33 8.1 SSW 7 7 4 4 1012.0 1010.5 0.0
22/12:30am 21.9 19.3 3.1 29 9.1 SSW 6 7 3 4 1012.2 1010.8 0.0
22/12:00am 21.7 18.9 3.4 30 8.9 SSW 7 9 4 5 1012.4 1011.0 0.0
 
Date/Time
CST
Temp
°C
App
Temp
°C
Dew
Point
°C
Rel
Hum
%
Delta-T
°C
Wind Press
QNH
hPa
Press
MSL
hPa
Rain since
9am
mm
Dir  Spd
km/h
Gust
km/h
Spd
kts
Gust
kts
21/11:30pm 23.3 20.2 1.6 24 10.3 SW 7 9 4 5 1012.7 1011.3 0.0
21/11:00pm 23.9 20.8 1.5 23 10.6 WSW 7 7 4 4 1012.9 1011.5 0.0
21/10:30pm 25.1 22.0 1.3 21 11.4 SW 7 7 4 4 1013.0 1011.6 0.0
21/10:00pm 25.8 22.3 1.2 20 11.8 S 9 11 5 6 1012.8 1011.4 0.0
21/09:30pm 25.9 21.6 1.2 20 11.8 S 13 15 7 8 1012.6 1011.2 0.0
21/09:00pm 27.0 22.8 1.4 19 12.4 S 13 15 7 8 1012.6 1011.2 0.0
21/08:30pm 27.0 23.3 2.1 20 12.2 SSW 11 13 6 7 1012.5 1011.1 0.0
21/08:00pm 27.9 24.6 2.2 19 12.7 SSW 9 11 5 6 1012.3 1010.9 0.0
21/07:30pm 29.4 26.0 1.8 17 13.7 SSW 9 11 5 6 1012.1 1010.6 0.0
21/07:00pm 30.0 26.5 1.5 16 14.1 SSW 9 11 5 6 1011.8 1010.3 0.0
21/06:30pm 31.6 28.0 0.9 14 15.2 S 9 11 5 6 1011.6 1010.1 0.0
21/06:00pm 34.1 29.4 0.7 12 16.8 S 15 20 8 11 1011.2 1009.7 0.0
21/05:30pm 34.5 30.0 2.1 13 16.7 SSW 15 20 8 11 1010.9 1009.4 0.0
21/05:00pm 35.4 30.8 1.7 12 17.3 SSE 15 22 8 12 1010.7 1009.2 0.0
21/04:30pm 35.4 31.6 1.7 12 17.3 S 11 15 6 8 1010.5 1009.1 0.0
21/04:00pm 35.7 31.5 1.9 12 17.5 SSW 13 17 7 9 1010.7 1009.2 0.0
21/03:30pm 35.9 32.2 2.1 12 17.5 SSE 11 20 6 11 1010.8 1009.3 0.0
21/03:00pm 36.0 31.9 2.1 12 17.6 SSE 13 20 7 11 1011.1 1009.6 0.0
21/02:30pm 36.0 33.0 2.1 12 17.6 S 7 17 4 9 1011.5 1010.0 0.0
21/02:00pm 35.2 31.7 1.5 12 17.2 SE 9 11 5 6 1012.0 1010.5 0.0
21/01:30pm 34.6 30.7 1.1 12 17.0 ESE 11 17 6 9 1012.5 1011.1 0.0
21/01:00pm 34.2 30.0 1.9 13 16.5 S 13 20 7 11 1013.0 1011.6 0.0
21/12:30pm 33.3 28.6 1.2 13 16.2 SE 15 22 8 12 1013.7 1012.3 0.0
21/12:00pm 32.4 27.3 0.5 13 15.8 SSE 17 26 9 14 1014.5 1013.1 0.0
21/11:30am 32.0 26.4 0.2 13 15.6 SSE 19 28 10 15 1014.9 1013.5 0.0
21/11:00am 30.8 25.0 0.2 14 14.9 SSE 20 33 11 18 1015.8 1014.3 0.0
21/10:30am 30.4 24.8 -0.1 14 14.7 SE 19 28 10 15 1016.4 1015.0 0.0
21/10:00am 29.7 23.5 -0.6 14 14.4 SSE 22 32 12 17 1016.7 1015.3 0.0
21/09:30am 27.9 22.0 -1.1 15 13.5 SSE 20 30 11 16 1017.2 1015.8 0.0
21/09:00am 27.1 20.4 -0.9 16 13.0 SSE 24 30 13 16 1017.1 1015.7 0.0
21/08:30am 26.3 20.0 -0.7 17 12.5 SSE 22 28 12 15 1017.2 1015.8 0.0
21/08:00am 25.4 18.3 -1.4 17 12.2 SSE 26 35 14 19 1016.9 1015.5 0.0

Other Formats:

Comma delimited format used in spreadsheet applications
http://www.bom.gov.au/fwo/IDD60801/IDD60801.94255.axf

JavaScript Object Notation format (JSON) in row-major order
http://www.bom.gov.au/fwo/IDD60801/IDD60801.94255.json